sensor_id;sensor_type;location;lat;lon;timestamp;pressure;altitude;pressure_sealevel;temperature;humidity
28927;BME280;16038;47.692;9.400;2023-04-12T00:01:27;96278.16;;;6.94;100.00
28927;BME280;16038;47.692;9.400;2023-04-12T00:03:52;96274.84;;;6.85;100.00
28927;BME280;16038;47.692;9.400;2023-04-12T00:06:18;96265.88;;;6.84;100.00
28927;BME280;16038;47.692;9.400;2023-04-12T00:08:45;96257.97;;;6.79;100.00
28927;BME280;16038;47.692;9.400;2023-04-12T00:11:10;96253.75;;;6.82;100.00
28927;BME280;16038;47.692;9.400;2023-04-12T00:13:36;96252.88;;;6.78;100.00
28927;BME280;16038;47.692;9.400;2023-04-12T00:16:01;96251.28;;;6.77;100.00
28927;BME280;16038;47.692;9.400;2023-04-12T00:18:26;96243.56;;;6.79;100.00
28927;BME280;16038;47.692;9.400;2023-04-12T00:20:52;96238.84;;;6.76;100.00
28927;BME280;16038;47.692;9.400;2023-04-12T00:23:19;96243.13;;;6.77;100.00
28927;BME280;16038;47.692;9.400;2023-04-12T00:25:44;96233.13;;;6.81;100.00
28927;BME280;16038;47.692;9.400;2023-04-12T00:28:10;96223.72;;;6.78;100.00
28927;BME280;16038;47.692;9.400;2023-04-12T00:30:35;96231.91;;;6.78;100.00
28927;BME280;16038;47.692;9.400;2023-04-12T00:33:01;96222.16;;;6.77;100.00
28927;BME280;16038;47.692;9.400;2023-04-12T00:35:26;96223.22;;;6.73;100.00
28927;BME280;16038;47.692;9.400;2023-04-12T00:37:51;96211.53;;;6.72;100.00
28927;BME280;16038;47.692;9.400;2023-04-12T00:40:17;96211.97;;;6.74;100.00
28927;BME280;16038;47.692;9.400;2023-04-12T00:42:42;96209.00;;;6.79;100.00
28927;BME280;16038;47.692;9.400;2023-04-12T00:45:07;96208.72;;;6.84;100.00
28927;BME280;16038;47.692;9.400;2023-04-12T00:47:33;96198.88;;;6.80;100.00
28927;BME280;16038;47.692;9.400;2023-04-12T00:49:59;96198.38;;;6.74;100.00
28927;BME280;16038;47.692;9.400;2023-04-12T00:52:25;96186.88;;;6.81;100.00
28927;BME280;16038;47.692;9.400;2023-04-12T00:54:52;96190.72;;;6.80;100.00
28927;BME280;16038;47.692;9.400;2023-04-12T00:57:17;96183.56;;;6.91;100.00
28927;BME280;16038;47.692;9.400;2023-04-12T00:59:43;96185.78;;;6.85;100.00
28927;BME280;16038;47.692;9.400;2023-04-12T01:02:08;96163.41;;;6.76;100.00
28927;BME280;16038;47.692;9.400;2023-04-12T01:04:33;96165.19;;;6.68;100.00
28927;BME280;16038;47.692;9.400;2023-04-12T01:17:25;96137.19;;;6.68;100.00
28927;BME280;16038;47.692;9.400;2023-04-12T01:19:57;96139.09;;;6.83;100.00
28927;BME280;16038;47.692;9.400;2023-04-12T01:25:01;96129.25;;;6.43;100.00
28927;BME280;16038;47.692;9.400;2023-04-12T01:27:33;96128.84;;;6.09;100.00
28927;BME280;16038;47.692;9.400;2023-04-12T01:30:03;96122.09;;;6.03;100.00
28927;BME280;16038;47.692;9.400;2023-04-12T01:32:30;96125.66;;;5.91;100.00
28927;BME280;16038;47.692;9.400;2023-04-12T01:34:56;96108.91;;;5.89;100.00
28927;BME280;16038;47.692;9.400;2023-04-12T01:37:22;96119.69;;;5.86;100.00
28927;BME280;16038;47.692;9.400;2023-04-12T01:39:48;96116.09;;;5.82;100.00
28927;BME280;16038;47.692;9.400;2023-04-12T01:42:17;96103.91;;;5.75;100.00
28927;BME280;16038;47.692;9.400;2023-04-12T01:44:43;96098.72;;;5.70;100.00
28927;BME280;16038;47.692;9.400;2023-04-12T01:47:08;96096.81;;;5.71;100.00
28927;BME280;16038;47.692;9.400;2023-04-12T01:49:35;96088.19;;;5.69;100.00
28927;BME280;16038;47.692;9.400;2023-04-12T01:52:08;96083.13;;;5.67;100.00
28927;BME280;16038;47.692;9.400;2023-04-12T01:54:36;96078.03;;;5.66;100.00
28927;BME280;16038;47.692;9.400;2023-04-12T01:57:02;96069.00;;;5.78;100.00
28927;BME280;16038;47.692;9.400;2023-04-12T01:59:34;96069.34;;;5.76;100.00
28927;BME280;16038;47.692;9.400;2023-04-12T02:02:01;96056.84;;;5.71;100.00
28927;BME280;16038;47.692;9.400;2023-04-12T02:04:26;96055.59;;;5.69;100.00
28927;BME280;16038;47.692;9.400;2023-04-12T02:06:52;96048.94;;;5.66;100.00
28927;BME280;16038;47.692;9.400;2023-04-12T02:09:18;96056.56;;;5.61;100.00
28927;BME280;16038;47.692;9.400;2023-04-12T02:11:46;96053.41;;;5.59;100.00
28927;BME280;16038;47.692;9.400;2023-04-12T02:14:12;96054.72;;;5.65;100.00
28927;BME280;16038;47.692;9.400;2023-04-12T02:16:38;96053.59;;;5.66;100.00
28927;BME280;16038;47.692;9.400;2023-04-12T02:19:03;96043.16;;;5.68;100.00
28927;BME280;16038;47.692;9.400;2023-04-12T02:21:39;96047.91;;;5.71;100.00
28927;BME280;16038;47.692;9.400;2023-04-12T02:24:05;96036.38;;;5.62;100.00
28927;BME280;16038;47.692;9.400;2023-04-12T02:26:30;96040.25;;;5.61;100.00
28927;BME280;16038;47.692;9.400;2023-04-12T02:28:56;96031.84;;;5.66;100.00
28927;BME280;16038;47.692;9.400;2023-04-12T02:31:22;96039.09;;;5.62;100.00
28927;BME280;16038;47.692;9.400;2023-04-12T02:33:48;96026.69;;;5.61;100.00
28927;BME280;16038;47.692;9.400;2023-04-12T02:36:14;96021.94;;;5.58;100.00
28927;BME280;16038;47.692;9.400;2023-04-12T02:38:39;96022.72;;;5.58;100.00
28927;BME280;16038;47.692;9.400;2023-04-12T02:41:04;96007.94;;;5.55;100.00
28927;BME280;16038;47.692;9.400;2023-04-12T02:43:31;95996.63;;;5.53;100.00
28927;BME280;16038;47.692;9.400;2023-04-12T02:45:56;95992.66;;;5.51;100.00
28927;BME280;16038;47.692;9.400;2023-04-12T02:48:22;95977.53;;;5.50;100.00
28927;BME280;16038;47.692;9.400;2023-04-12T02:50:47;95980.59;;;5.48;100.00
28927;BME280;16038;47.692;9.400;2023-04-12T02:53:12;95972.78;;;5.47;100.00
28927;BME280;16038;47.692;9.400;2023-04-12T02:55:37;95973.13;;;5.45;100.00
28927;BME280;16038;47.692;9.400;2023-04-12T02:58:04;95959.56;;;5.45;100.00
28927;BME280;16038;47.692;9.400;2023-04-12T03:00:30;95950.28;;;5.46;100.00
28927;BME280;16038;47.692;9.400;2023-04-12T03:02:55;95948.69;;;5.45;100.00
28927;BME280;16038;47.692;9.400;2023-04-12T03:05:22;95941.34;;;5.46;100.00
28927;BME280;16038;47.692;9.400;2023-04-12T03:07:48;95925.50;;;5.48;100.00
28927;BME280;16038;47.692;9.400;2023-04-12T03:10:13;95933.38;;;5.53;100.00
28927;BME280;16038;47.692;9.400;2023-04-12T03:12:38;95928.28;;;5.51;100.00
28927;BME280;16038;47.692;9.400;2023-04-12T03:15:04;95929.75;;;5.49;100.00
28927;BME280;16038;47.692;9.400;2023-04-12T03:17:29;95926.34;;;5.52;100.00
28927;BME280;16038;47.692;9.400;2023-04-12T03:19:55;95928.03;;;5.57;100.00
28927;BME280;16038;47.692;9.400;2023-04-12T03:22:22;95920.47;;;5.50;100.00
28927;BME280;16038;47.692;9.400;2023-04-12T03:24:47;95916.19;;;5.49;100.00
28927;BME280;16038;47.692;9.400;2023-04-12T03:27:13;95918.97;;;5.52;100.00
28927;BME280;16038;47.692;9.400;2023-04-12T03:29:39;95919.22;;;5.63;100.00
28927;BME280;16038;47.692;9.400;2023-04-12T03:32:04;95923.88;;;5.63;100.00
28927;BME280;16038;47.692;9.400;2023-04-12T03:34:29;95924.16;;;5.58;100.00
28927;BME280;16038;47.692;9.400;2023-04-12T03:36:56;95927.13;;;5.52;100.00
28927;BME280;16038;47.692;9.400;2023-04-12T03:39:21;95925.22;;;5.53;100.00
28927;BME280;16038;47.692;9.400;2023-04-12T03:41:47;95923.72;;;5.55;100.00
28927;BME280;16038;47.692;9.400;2023-04-12T03:44:12;95906.56;;;5.51;100.00
28927;BME280;16038;47.692;9.400;2023-04-12T03:46:38;95915.84;;;5.50;100.00
28927;BME280;16038;47.692;9.400;2023-04-12T03:49:03;95904.53;;;5.48;100.00
28927;BME280;16038;47.692;9.400;2023-04-12T03:51:29;95905.66;;;5.47;100.00
28927;BME280;16038;47.692;9.400;2023-04-12T03:53:55;95904.88;;;5.47;100.00
28927;BME280;16038;47.692;9.400;2023-04-12T03:56:20;95896.03;;;5.50;100.00
28927;BME280;16038;47.692;9.400;2023-04-12T03:58:46;95906.91;;;5.50;100.00
28927;BME280;16038;47.692;9.400;2023-04-12T04:01:11;95902.41;;;5.58;100.00
28927;BME280;16038;47.692;9.400;2023-04-12T04:03:40;95899.97;;;5.52;100.00
28927;BME280;16038;47.692;9.400;2023-04-12T04:06:06;95899.53;;;5.50;100.00
28927;BME280;16038;47.692;9.400;2023-04-12T04:08:32;95901.47;;;5.50;100.00
28927;BME280;16038;47.692;9.400;2023-04-12T04:10:57;95903.84;;;5.51;100.00
28927;BME280;16038;47.692;9.400;2023-04-12T04:13:23;95893.75;;;5.52;100.00
28927;BME280;16038;47.692;9.400;2023-04-12T04:15:50;95891.81;;;5.52;100.00
28927;BME280;16038;47.692;9.400;2023-04-12T04:18:15;95885.19;;;5.50;100.00
28927;BME280;16038;47.692;9.400;2023-04-12T04:20:41;95881.69;;;5.49;100.00
28927;BME280;16038;47.692;9.400;2023-04-12T04:23:07;95871.69;;;5.53;100.00
28927;BME280;16038;47.692;9.400;2023-04-12T04:25:34;95868.19;;;5.53;100.00
28927;BME280;16038;47.692;9.400;2023-04-12T04:28:03;95856.44;;;5.49;100.00
28927;BME280;16038;47.692;9.400;2023-04-12T04:30:29;95864.56;;;5.49;100.00
28927;BME280;16038;47.692;9.400;2023-04-12T04:32:58;95864.66;;;5.52;100.00
28927;BME280;16038;47.692;9.400;2023-04-12T04:35:23;95869.31;;;5.52;100.00
28927;BME280;16038;47.692;9.400;2023-04-12T04:37:48;95849.44;;;5.48;100.00
28927;BME280;16038;47.692;9.400;2023-04-12T04:40:15;95849.00;;;5.46;100.00
28927;BME280;16038;47.692;9.400;2023-04-12T04:42:41;95845.56;;;5.49;100.00
28927;BME280;16038;47.692;9.400;2023-04-12T04:45:07;95841.63;;;5.46;100.00
28927;BME280;16038;47.692;9.400;2023-04-12T04:47:40;95828.75;;;5.43;100.00
28927;BME280;16038;47.692;9.400;2023-04-12T04:50:06;95817.91;;;5.43;100.00
28927;BME280;16038;47.692;9.400;2023-04-12T04:52:31;95817.97;;;5.47;100.00
28927;BME280;16038;47.692;9.400;2023-04-12T04:54:56;95817.19;;;5.46;100.00
28927;BME280;16038;47.692;9.400;2023-04-12T04:57:22;95823.41;;;5.47;100.00
28927;BME280;16038;47.692;9.400;2023-04-12T04:59:48;95825.00;;;5.48;100.00
28927;BME280;16038;47.692;9.400;2023-04-12T05:02:13;95826.13;;;5.47;100.00
28927;BME280;16038;47.692;9.400;2023-04-12T05:04:38;95818.84;;;5.51;100.00
28927;BME280;16038;47.692;9.400;2023-04-12T05:07:03;95821.13;;;5.49;100.00
28927;BME280;16038;47.692;9.400;2023-04-12T05:09:29;95817.34;;;5.53;100.00
28927;BME280;16038;47.692;9.400;2023-04-12T05:11:54;95818.47;;;5.52;100.00
28927;BME280;16038;47.692;9.400;2023-04-12T05:14:19;95807.63;;;5.52;100.00
28927;BME280;16038;47.692;9.400;2023-04-12T05:16:45;95814.59;;;5.69;100.00
28927;BME280;16038;47.692;9.400;2023-04-12T05:19:10;95814.94;;;5.68;100.00
28927;BME280;16038;47.692;9.400;2023-04-12T05:21:35;95818.66;;;5.79;100.00
28927;BME280;16038;47.692;9.400;2023-04-12T05:24:01;95813.94;;;5.76;100.00
28927;BME280;16038;47.692;9.400;2023-04-12T05:26:27;95812.16;;;5.84;100.00
28927;BME280;16038;47.692;9.400;2023-04-12T05:28:52;95803.88;;;5.77;100.00
28927;BME280;16038;47.692;9.400;2023-04-12T05:31:18;95796.50;;;5.77;100.00
28927;BME280;16038;47.692;9.400;2023-04-12T05:33:43;95801.22;;;5.80;100.00
28927;BME280;16038;47.692;9.400;2023-04-12T05:36:09;95793.34;;;5.75;100.00
28927;BME280;16038;47.692;9.400;2023-04-12T05:38:34;95788.63;;;5.72;100.00
28927;BME280;16038;47.692;9.400;2023-04-12T05:41:00;95782.13;;;5.77;100.00
28927;BME280;16038;47.692;9.400;2023-04-12T05:43:28;95777.19;;;5.82;100.00
28927;BME280;16038;47.692;9.400;2023-04-12T05:45:54;95777.69;;;5.88;100.00
28927;BME280;16038;47.692;9.400;2023-04-12T05:48:19;95781.53;;;5.87;100.00
28927;BME280;16038;47.692;9.400;2023-04-12T05:50:51;95775.09;;;5.95;100.00
28927;BME280;16038;47.692;9.400;2023-04-12T05:53:17;95779.78;;;6.14;100.00
28927;BME280;16038;47.692;9.400;2023-04-12T05:55:42;95782.25;;;6.23;100.00
28927;BME280;16038;47.692;9.400;2023-04-12T05:58:08;95787.81;;;6.30;100.00
28927;BME280;16038;47.692;9.400;2023-04-12T06:00:34;95780.59;;;6.38;100.00
28927;BME280;16038;47.692;9.400;2023-04-12T06:02:59;95776.53;;;6.51;100.00
28927;BME280;16038;47.692;9.400;2023-04-12T06:05:25;95781.91;;;6.70;100.00
28927;BME280;16038;47.692;9.400;2023-04-12T06:07:51;95771.75;;;6.67;100.00
28927;BME280;16038;47.692;9.400;2023-04-12T06:10:16;95768.44;;;6.78;100.00
28927;BME280;16038;47.692;9.400;2023-04-12T06:12:41;95754.94;;;6.85;100.00
28927;BME280;16038;47.692;9.400;2023-04-12T06:15:07;95758.06;;;6.87;100.00
28927;BME280;16038;47.692;9.400;2023-04-12T06:17:33;95754.56;;;6.86;100.00
28927;BME280;16038;47.692;9.400;2023-04-12T06:19:58;95757.16;;;7.02;100.00
28927;BME280;16038;47.692;9.400;2023-04-12T06:22:23;95750.06;;;6.98;100.00
28927;BME280;16038;47.692;9.400;2023-04-12T06:24:49;95753.34;;;6.84;100.00
28927;BME280;16038;47.692;9.400;2023-04-12T06:27:14;95751.91;;;6.90;100.00
28927;BME280;16038;47.692;9.400;2023-04-12T06:29:40;95750.47;;;6.73;100.00
28927;BME280;16038;47.692;9.400;2023-04-12T06:32:05;95745.53;;;6.56;100.00
28927;BME280;16038;47.692;9.400;2023-04-12T06:34:30;95732.59;;;6.49;100.00
28927;BME280;16038;47.692;9.400;2023-04-12T06:36:56;95738.75;;;6.46;100.00
28927;BME280;16038;47.692;9.400;2023-04-12T06:39:21;95729.38;;;6.43;100.00
28927;BME280;16038;47.692;9.400;2023-04-12T06:41:47;95722.00;;;6.44;100.00
28927;BME280;16038;47.692;9.400;2023-04-12T06:44:14;95724.38;;;6.45;100.00
28927;BME280;16038;47.692;9.400;2023-04-12T06:46:39;95711.97;;;6.48;100.00
28927;BME280;16038;47.692;9.400;2023-04-12T06:49:05;95701.03;;;6.44;100.00
28927;BME280;16038;47.692;9.400;2023-04-12T06:51:30;95695.66;;;6.48;100.00
28927;BME280;16038;47.692;9.400;2023-04-12T06:53:55;95683.75;;;6.56;100.00
28927;BME280;16038;47.692;9.400;2023-04-12T06:56:21;95661.91;;;6.53;100.00
28927;BME280;16038;47.692;9.400;2023-04-12T06:58:47;95656.13;;;6.54;100.00
28927;BME280;16038;47.692;9.400;2023-04-12T07:01:12;95637.50;;;6.56;100.00
28927;BME280;16038;47.692;9.400;2023-04-12T07:03:38;95640.22;;;6.56;100.00
28927;BME280;16038;47.692;9.400;2023-04-12T07:06:03;95641.09;;;6.64;100.00
28927;BME280;16038;47.692;9.400;2023-04-12T07:08:33;95638.94;;;6.77;100.00
28927;BME280;16038;47.692;9.400;2023-04-12T07:10:58;95639.94;;;6.92;100.00
28927;BME280;16038;47.692;9.400;2023-04-12T07:13:23;95651.25;;;7.24;100.00
28927;BME280;16038;47.692;9.400;2023-04-12T07:15:49;95660.81;;;7.44;100.00
28927;BME280;16038;47.692;9.400;2023-04-12T07:18:15;95644.53;;;7.18;100.00
28927;BME280;16038;47.692;9.400;2023-04-12T07:20:40;95642.94;;;7.13;100.00
28927;BME280;16038;47.692;9.400;2023-04-12T07:23:05;95635.81;;;7.35;100.00
28927;BME280;16038;47.692;9.400;2023-04-12T07:25:31;95624.50;;;7.33;100.00
28927;BME280;16038;47.692;9.400;2023-04-12T07:27:56;95617.78;;;7.27;100.00
28927;BME280;16038;47.692;9.400;2023-04-12T07:30:21;95614.91;;;7.84;100.00
28927;BME280;16038;47.692;9.400;2023-04-12T07:32:47;95619.91;;;8.19;100.00
28927;BME280;16038;47.692;9.400;2023-04-12T07:35:12;95623.13;;;8.88;100.00
28927;BME280;16038;47.692;9.400;2023-04-12T07:37:38;95603.44;;;9.41;100.00
28927;BME280;16038;47.692;9.400;2023-04-12T07:40:03;95606.63;;;9.68;100.00
28927;BME280;16038;47.692;9.400;2023-04-12T07:42:29;95610.00;;;9.15;100.00
28927;BME280;16038;47.692;9.400;2023-04-12T07:44:54;95609.13;;;9.04;100.00
28927;BME280;16038;47.692;9.400;2023-04-12T07:47:20;95599.84;;;9.19;100.00
28927;BME280;16038;47.692;9.400;2023-04-12T07:49:45;95587.81;;;8.54;100.00
28927;BME280;16038;47.692;9.400;2023-04-12T07:52:10;95576.78;;;8.39;100.00
28927;BME280;16038;47.692;9.400;2023-04-12T07:54:36;95566.31;;;8.45;100.00
28927;BME280;16038;47.692;9.400;2023-04-12T07:57:01;95574.63;;;8.67;100.00
28927;BME280;16038;47.692;9.400;2023-04-12T07:59:27;95564.63;;;8.96;100.00
28927;BME280;16038;47.692;9.400;2023-04-12T08:01:53;95565.16;;;9.41;100.00
28927;BME280;16038;47.692;9.400;2023-04-12T08:04:18;95563.69;;;9.72;100.00
28927;BME280;16038;47.692;9.400;2023-04-12T08:06:44;95557.06;;;10.17;100.00
28927;BME280;16038;47.692;9.400;2023-04-12T08:09:09;95555.31;;;11.05;100.00
28927;BME280;16038;47.692;9.400;2023-04-12T08:11:35;95570.09;;;12.03;98.51
28927;BME280;16038;47.692;9.400;2023-04-12T08:14:00;95561.66;;;12.29;100.00
28927;BME280;16038;47.692;9.400;2023-04-12T08:16:25;95565.91;;;12.78;93.21
28927;BME280;16038;47.692;9.400;2023-04-12T08:18:51;95577.06;;;12.98;91.74
28927;BME280;16038;47.692;9.400;2023-04-12T08:21:16;95569.31;;;12.90;90.93
28927;BME280;16038;47.692;9.400;2023-04-12T08:23:42;95559.88;;;12.04;100.00
28927;BME280;16038;47.692;9.400;2023-04-12T08:26:08;95561.31;;;12.65;93.22
28927;BME280;16038;47.692;9.400;2023-04-12T08:28:33;95552.34;;;13.29;88.20
28927;BME280;16038;47.692;9.400;2023-04-12T08:30:58;95553.56;;;14.13;83.61
28927;BME280;16038;47.692;9.400;2023-04-12T08:33:24;95557.28;;;14.94;72.54
28927;BME280;16038;47.692;9.400;2023-04-12T08:35:49;95548.34;;;14.43;77.29
28927;BME280;16038;47.692;9.400;2023-04-12T08:38:16;95552.03;;;15.00;76.18
28927;BME280;16038;47.692;9.400;2023-04-12T08:40:42;95551.00;;;15.14;76.45
28927;BME280;16038;47.692;9.400;2023-04-12T08:43:07;95558.72;;;15.02;71.15
28927;BME280;16038;47.692;9.400;2023-04-12T08:45:34;95538.59;;;14.82;74.60
28927;BME280;16038;47.692;9.400;2023-04-12T08:47:59;95542.16;;;15.59;71.81
28927;BME280;16038;47.692;9.400;2023-04-12T08:50:26;95538.97;;;15.04;72.66
28927;BME280;16038;47.692;9.400;2023-04-12T08:52:52;95527.84;;;14.67;73.01
28927;BME280;16038;47.692;9.400;2023-04-12T08:55:18;95526.09;;;14.97;67.77
28927;BME280;16038;47.692;9.400;2023-04-12T08:57:43;95526.38;;;15.03;70.18
28927;BME280;16038;47.692;9.400;2023-04-12T09:00:09;95539.53;;;15.35;67.83
28927;BME280;16038;47.692;9.400;2023-04-12T09:02:35;95541.81;;;15.57;66.90
28927;BME280;16038;47.692;9.400;2023-04-12T09:05:02;95539.66;;;15.48;65.42
28927;BME280;16038;47.692;9.400;2023-04-12T09:07:28;95541.25;;;15.65;63.84
28927;BME280;16038;47.692;9.400;2023-04-12T09:09:55;95536.97;;;15.81;60.70
28927;BME280;16038;47.692;9.400;2023-04-12T09:12:21;95537.06;;;15.57;63.33
28927;BME280;16038;47.692;9.400;2023-04-12T09:14:48;95537.25;;;15.86;60.98
28927;BME280;16038;47.692;9.400;2023-04-12T09:17:28;95530.00;;;16.09;62.80
28927;BME280;16038;47.692;9.400;2023-04-12T09:19:54;95525.09;;;16.17;61.91
28927;BME280;16038;47.692;9.400;2023-04-12T09:22:35;95516.19;;;16.58;59.62
28927;BME280;16038;47.692;9.400;2023-04-12T09:25:01;95518.09;;;16.74;58.88
28927;BME280;16038;47.692;9.400;2023-04-12T09:27:27;95524.78;;;17.06;56.92
28927;BME280;16038;47.692;9.400;2023-04-12T09:30:06;95512.13;;;17.22;56.77
28927;BME280;16038;47.692;9.400;2023-04-12T09:32:31;95520.66;;;17.40;57.60
28927;BME280;16038;47.692;9.400;2023-04-12T09:34:57;95520.34;;;17.38;55.39
28927;BME280;16038;47.692;9.400;2023-04-12T09:37:24;95516.75;;;17.25;56.32
28927;BME280;16038;47.692;9.400;2023-04-12T09:39:59;95525.09;;;16.95;54.17
28927;BME280;16038;47.692;9.400;2023-04-12T09:42:26;95511.38;;;16.30;57.95
28927;BME280;16038;47.692;9.400;2023-04-12T09:44:52;95517.03;;;17.01;53.23
28927;BME280;16038;47.692;9.400;2023-04-12T09:47:17;95512.69;;;17.29;53.04
28927;BME280;16038;47.692;9.400;2023-04-12T09:49:43;95510.25;;;17.44;53.90
28927;BME280;16038;47.692;9.400;2023-04-12T09:52:09;95512.31;;;17.14;54.72
28927;BME280;16038;47.692;9.400;2023-04-12T09:54:46;95511.59;;;17.52;52.34
28927;BME280;16038;47.692;9.400;2023-04-12T09:57:16;95512.91;;;17.48;53.11
28927;BME280;16038;47.692;9.400;2023-04-12T09:59:41;95511.00;;;17.32;53.96
28927;BME280;16038;47.692;9.400;2023-04-12T10:04:34;95505.59;;;16.40;54.04
28927;BME280;16038;47.692;9.400;2023-04-12T10:07:01;95500.66;;;16.32;54.58
28927;BME280;16038;47.692;9.400;2023-04-12T10:09:27;95491.94;;;16.17;57.33
28927;BME280;16038;47.692;9.400;2023-04-12T10:11:52;95492.13;;;16.26;58.36
28927;BME280;16038;47.692;9.400;2023-04-12T10:14:18;95495.59;;;15.97;57.76
28927;BME280;16038;47.692;9.400;2023-04-12T10:16:45;95492.97;;;15.74;58.89
28927;BME280;16038;47.692;9.400;2023-04-12T10:19:11;95496.69;;;15.83;57.33
28927;BME280;16038;47.692;9.400;2023-04-12T10:21:37;95500.41;;;15.93;59.54
28927;BME280;16038;47.692;9.400;2023-04-12T10:24:02;95501.63;;;16.25;60.17
28927;BME280;16038;47.692;9.400;2023-04-12T10:26:27;95491.88;;;15.88;60.22
28927;BME280;16038;47.692;9.400;2023-04-12T10:31:37;95485.06;;;16.09;57.72
28927;BME280;16038;47.692;9.400;2023-04-12T10:34:02;95492.03;;;15.97;60.21
28927;BME280;16038;47.692;9.400;2023-04-12T10:39:11;95493.19;;;17.20;56.83
28927;BME280;16038;47.692;9.400;2023-04-12T10:41:41;95489.56;;;16.94;56.34
28927;BME280;16038;47.692;9.400;2023-04-12T10:44:24;95487.72;;;16.29;54.45
28927;BME280;16038;47.692;9.400;2023-04-12T10:46:51;95487.97;;;15.68;55.73
28927;BME280;16038;47.692;9.400;2023-04-12T10:49:16;95501.47;;;15.83;56.69
28927;BME280;16038;47.692;9.400;2023-04-12T10:56:52;95499.38;;;16.03;56.78
28927;BME280;16038;47.692;9.400;2023-04-12T10:59:17;95512.34;;;16.07;56.91
28927;BME280;16038;47.692;9.400;2023-04-12T11:04:27;95513.09;;;16.07;58.17
28927;BME280;16038;47.692;9.400;2023-04-12T11:09:21;95515.13;;;15.70;60.16
28927;BME280;16038;47.692;9.400;2023-04-12T11:11:48;95520.09;;;16.12;60.39
28927;BME280;16038;47.692;9.400;2023-04-12T11:14:16;95514.66;;;16.87;60.35
28927;BME280;16038;47.692;9.400;2023-04-12T11:19:26;95515.44;;;16.87;58.82
28927;BME280;16038;47.692;9.400;2023-04-12T11:21:51;95523.25;;;16.59;58.60
28927;BME280;16038;47.692;9.400;2023-04-12T11:24:17;95528.63;;;16.50;60.64
28927;BME280;16038;47.692;9.400;2023-04-12T11:26:43;95523.34;;;16.39;59.60
28927;BME280;16038;47.692;9.400;2023-04-12T11:29:11;95517.13;;;16.52;59.03
28927;BME280;16038;47.692;9.400;2023-04-12T11:31:39;95516.88;;;16.46;59.78
28927;BME280;16038;47.692;9.400;2023-04-12T11:34:04;95521.25;;;16.60;58.00
28927;BME280;16038;47.692;9.400;2023-04-12T11:36:30;95517.53;;;16.67;57.35
28927;BME280;16038;47.692;9.400;2023-04-12T11:38:55;95507.13;;;16.41;58.63
28927;BME280;16038;47.692;9.400;2023-04-12T11:41:20;95508.50;;;15.84;60.19
28927;BME280;16038;47.692;9.400;2023-04-12T11:43:46;95505.66;;;16.20;57.97
28927;BME280;16038;47.692;9.400;2023-04-12T11:46:11;95505.84;;;15.97;58.88
28927;BME280;16038;47.692;9.400;2023-04-12T11:48:36;95505.25;;;15.89;59.34
28927;BME280;16038;47.692;9.400;2023-04-12T11:51:20;95508.53;;;15.47;60.76
28927;BME280;16038;47.692;9.400;2023-04-12T11:53:46;95505.31;;;14.93;64.59
28927;BME280;16038;47.692;9.400;2023-04-12T11:56:16;95504.25;;;14.86;64.42
28927;BME280;16038;47.692;9.400;2023-04-12T11:58:41;95511.41;;;14.84;64.93
28927;BME280;16038;47.692;9.400;2023-04-12T12:01:06;95507.78;;;14.87;64.61
28927;BME280;16038;47.692;9.400;2023-04-12T12:03:32;95506.59;;;14.68;66.17
28927;BME280;16038;47.692;9.400;2023-04-12T12:05:57;95508.25;;;14.62;69.30
28927;BME280;16038;47.692;9.400;2023-04-12T12:08:22;95506.31;;;14.62;70.89
28927;BME280;16038;47.692;9.400;2023-04-12T12:10:48;95496.75;;;14.67;73.62
28927;BME280;16038;47.692;9.400;2023-04-12T12:13:14;95492.59;;;14.79;75.42
28927;BME280;16038;47.692;9.400;2023-04-12T12:15:42;95484.28;;;14.82;78.10
28927;BME280;16038;47.692;9.400;2023-04-12T12:18:08;95488.22;;;15.01;81.91
28927;BME280;16038;47.692;9.400;2023-04-12T12:20:40;95488.78;;;14.72;83.59
28927;BME280;16038;47.692;9.400;2023-04-12T12:23:06;95493.59;;;14.88;84.48
28927;BME280;16038;47.692;9.400;2023-04-12T12:25:31;95485.38;;;15.05;81.99
28927;BME280;16038;47.692;9.400;2023-04-12T12:27:57;95486.75;;;14.97;83.72
28927;BME280;16038;47.692;9.400;2023-04-12T12:30:23;95479.78;;;15.08;82.33
28927;BME280;16038;47.692;9.400;2023-04-12T12:32:49;95484.47;;;14.91;81.19
28927;BME280;16038;47.692;9.400;2023-04-12T12:35:16;95485.50;;;15.38;77.69
28927;BME280;16038;47.692;9.400;2023-04-12T12:37:47;95494.38;;;15.82;75.42
28927;BME280;16038;47.692;9.400;2023-04-12T12:40:12;95487.66;;;15.83;74.59
28927;BME280;16038;47.692;9.400;2023-04-12T12:45:09;95473.34;;;15.15;75.67
28927;BME280;16038;47.692;9.400;2023-04-12T12:47:44;95480.38;;;15.20;76.94
28927;BME280;16038;47.692;9.400;2023-04-12T12:50:09;95471.63;;;15.21;81.93
28927;BME280;16038;47.692;9.400;2023-04-12T12:52:37;95468.44;;;15.23;87.15
28927;BME280;16038;47.692;9.400;2023-04-12T12:55:02;95472.25;;;14.72;83.61
28927;BME280;16038;47.692;9.400;2023-04-12T12:57:28;95480.56;;;14.69;81.96
28927;BME280;16038;47.692;9.400;2023-04-12T12:59:53;95473.88;;;14.26;85.14
28927;BME280;16038;47.692;9.400;2023-04-12T13:02:18;95457.19;;;14.13;84.46
28927;BME280;16038;47.692;9.400;2023-04-12T13:04:43;95460.22;;;14.19;85.08
28927;BME280;16038;47.692;9.400;2023-04-12T13:07:09;95463.50;;;14.34;85.13
28927;BME280;16038;47.692;9.400;2023-04-12T13:09:34;95470.22;;;14.53;84.37
28927;BME280;16038;47.692;9.400;2023-04-12T13:11:59;95453.28;;;14.75;83.45
28927;BME280;16038;47.692;9.400;2023-04-12T13:14:26;95457.22;;;14.33;82.08
28927;BME280;16038;47.692;9.400;2023-04-12T13:16:51;95465.13;;;14.31;84.05
28927;BME280;16038;47.692;9.400;2023-04-12T13:19:17;95457.19;;;14.13;81.76
28927;BME280;16038;47.692;9.400;2023-04-12T13:21:42;95448.09;;;14.57;83.60
28927;BME280;16038;47.692;9.400;2023-04-12T13:24:07;95448.44;;;14.62;81.46
28927;BME280;16038;47.692;9.400;2023-04-12T13:26:33;95438.94;;;14.43;78.33
28927;BME280;16038;47.692;9.400;2023-04-12T13:28:58;95435.13;;;14.37;77.74
28927;BME280;16038;47.692;9.400;2023-04-12T13:31:25;95430.94;;;14.29;80.61